sensor_id;sensor_type;location;lat;lon;timestamp;P1;durP1;ratioP1;P2;durP2;ratioP2
69991;SDS011;57332;51.320;-0.580;2023-11-21T00:01:24;2.03;;;1.02;;
69991;SDS011;57332;51.320;-0.580;2023-11-21T00:03:51;3.00;;;1.45;;
69991;SDS011;57332;51.320;-0.580;2023-11-21T00:06:21;4.65;;;1.13;;
69991;SDS011;57332;51.320;-0.580;2023-11-21T00:08:48;3.80;;;1.20;;
69991;SDS011;57332;51.320;-0.580;2023-11-21T00:11:15;2.55;;;0.90;;
69991;SDS011;57332;51.320;-0.580;2023-11-21T00:13:42;1.77;;;0.98;;
69991;SDS011;57332;51.320;-0.580;2023-11-21T00:16:09;4.28;;;1.33;;
69991;SDS011;57332;51.320;-0.580;2023-11-21T00:18:36;2.40;;;1.20;;
69991;SDS011;57332;51.320;-0.580;2023-11-21T00:21:03;2.75;;;1.13;;
69991;SDS011;57332;51.320;-0.580;2023-11-21T00:23:30;2.05;;;1.20;;
69991;SDS011;57332;51.320;-0.580;2023-11-21T00:25:57;4.60;;;1.17;;
69991;SDS011;57332;51.320;-0.580;2023-11-21T00:28:24;6.53;;;1.42;;
69991;SDS011;57332;51.320;-0.580;2023-11-21T00:30:51;2.60;;;1.30;;
69991;SDS011;57332;51.320;-0.580;2023-11-21T00:33:18;2.45;;;1.30;;
69991;SDS011;57332;51.320;-0.580;2023-11-21T00:35:46;3.65;;;1.30;;
69991;SDS011;57332;51.320;-0.580;2023-11-21T00:38:13;2.65;;;1.20;;
69991;SDS011;57332;51.320;-0.580;2023-11-21T00:40:40;3.20;;;1.40;;
69991;SDS011;57332;51.320;-0.580;2023-11-21T00:43:06;1.67;;;1.05;;
69991;SDS011;57332;51.320;-0.580;2023-11-21T00:45:33;4.32;;;1.42;;
69991;SDS011;57332;51.320;-0.580;2023-11-21T00:48:01;2.20;;;1.27;;
69991;SDS011;57332;51.320;-0.580;2023-11-21T00:50:28;1.75;;;1.00;;
69991;SDS011;57332;51.320;-0.580;2023-11-21T00:52:55;3.15;;;1.27;;
69991;SDS011;57332;51.320;-0.580;2023-11-21T00:55:22;1.90;;;1.10;;
69991;SDS011;57332;51.320;-0.580;2023-11-21T00:57:49;3.85;;;1.20;;
69991;SDS011;57332;51.320;-0.580;2023-11-21T01:00:16;3.83;;;1.38;;
69991;SDS011;57332;51.320;-0.580;2023-11-21T01:02:46;2.45;;;1.25;;
69991;SDS011;57332;51.320;-0.580;2023-11-21T01:05:14;4.00;;;1.50;;
69991;SDS011;57332;51.320;-0.580;2023-11-21T01:07:41;2.88;;;1.50;;
69991;SDS011;57332;51.320;-0.580;2023-11-21T01:10:08;4.47;;;1.42;;
69991;SDS011;57332;51.320;-0.580;2023-11-21T01:12:36;2.63;;;1.30;;
69991;SDS011;57332;51.320;-0.580;2023-11-21T01:15:04;2.88;;;1.30;;
69991;SDS011;57332;51.320;-0.580;2023-11-21T01:17:34;3.92;;;1.90;;
69991;SDS011;57332;51.320;-0.580;2023-11-21T01:20:01;2.80;;;1.42;;
69991;SDS011;57332;51.320;-0.580;2023-11-21T01:22:29;3.13;;;1.65;;
69991;SDS011;57332;51.320;-0.580;2023-11-21T01:24:56;3.03;;;1.50;;
69991;SDS011;57332;51.320;-0.580;2023-11-21T01:27:24;5.30;;;1.90;;
69991;SDS011;57332;51.320;-0.580;2023-11-21T01:29:51;3.92;;;1.58;;
69991;SDS011;57332;51.320;-0.580;2023-11-21T01:32:20;3.33;;;1.55;;
69991;SDS011;57332;51.320;-0.580;2023-11-21T01:34:47;3.30;;;1.92;;
69991;SDS011;57332;51.320;-0.580;2023-11-21T01:37:14;3.63;;;1.70;;
69991;SDS011;57332;51.320;-0.580;2023-11-21T01:39:41;3.85;;;2.05;;
69991;SDS011;57332;51.320;-0.580;2023-11-21T01:42:08;2.65;;;1.50;;
69991;SDS011;57332;51.320;-0.580;2023-11-21T01:44:35;3.40;;;1.80;;
69991;SDS011;57332;51.320;-0.580;2023-11-21T01:47:02;3.35;;;1.50;;
69991;SDS011;57332;51.320;-0.580;2023-11-21T01:49:35;4.90;;;2.00;;
69991;SDS011;57332;51.320;-0.580;2023-11-21T01:52:02;4.40;;;1.70;;
69991;SDS011;57332;51.320;-0.580;2023-11-21T01:54:31;3.40;;;1.80;;
69991;SDS011;57332;51.320;-0.580;2023-11-21T01:56:58;4.88;;;2.00;;
69991;SDS011;57332;51.320;-0.580;2023-11-21T01:59:36;4.15;;;2.05;;
69991;SDS011;57332;51.320;-0.580;2023-11-21T02:02:06;4.03;;;1.67;;
69991;SDS011;57332;51.320;-0.580;2023-11-21T02:04:33;3.47;;;2.15;;
69991;SDS011;57332;51.320;-0.580;2023-11-21T02:07:00;4.55;;;1.90;;
69991;SDS011;57332;51.320;-0.580;2023-11-21T02:09:27;5.93;;;2.05;;
69991;SDS011;57332;51.320;-0.580;2023-11-21T02:11:56;5.00;;;2.20;;
69991;SDS011;57332;51.320;-0.580;2023-11-21T02:14:25;3.65;;;1.88;;
69991;SDS011;57332;51.320;-0.580;2023-11-21T02:16:53;3.22;;;2.03;;
69991;SDS011;57332;51.320;-0.580;2023-11-21T02:19:21;5.07;;;1.90;;
69991;SDS011;57332;51.320;-0.580;2023-11-21T02:21:50;3.45;;;1.95;;
69991;SDS011;57332;51.320;-0.580;2023-11-21T02:24:19;5.10;;;2.53;;
69991;SDS011;57332;51.320;-0.580;2023-11-21T02:26:46;4.60;;;2.00;;
69991;SDS011;57332;51.320;-0.580;2023-11-21T02:29:13;5.75;;;2.50;;
69991;SDS011;57332;51.320;-0.580;2023-11-21T02:31:39;4.13;;;2.15;;
69991;SDS011;57332;51.320;-0.580;2023-11-21T02:34:15;3.50;;;2.20;;
69991;SDS011;57332;51.320;-0.580;2023-11-21T02:36:42;5.63;;;2.05;;
69991;SDS011;57332;51.320;-0.580;2023-11-21T02:39:10;4.10;;;2.45;;
69991;SDS011;57332;51.320;-0.580;2023-11-21T02:41:37;5.20;;;2.10;;
69991;SDS011;57332;51.320;-0.580;2023-11-21T02:44:05;4.05;;;2.10;;
69991;SDS011;57332;51.320;-0.580;2023-11-21T02:46:33;4.60;;;2.10;;
69991;SDS011;57332;51.320;-0.580;2023-11-21T02:49:03;3.45;;;2.13;;
69991;SDS011;57332;51.320;-0.580;2023-11-21T02:51:30;4.90;;;2.78;;
69991;SDS011;57332;51.320;-0.580;2023-11-21T02:53:57;4.93;;;2.30;;
69991;SDS011;57332;51.320;-0.580;2023-11-21T02:56:29;4.05;;;2.15;;
69991;SDS011;57332;51.320;-0.580;2023-11-21T02:58:56;4.93;;;2.15;;
69991;SDS011;57332;51.320;-0.580;2023-11-21T03:01:23;5.22;;;2.17;;
69991;SDS011;57332;51.320;-0.580;2023-11-21T03:03:51;4.95;;;2.20;;
69991;SDS011;57332;51.320;-0.580;2023-11-21T03:06:18;3.42;;;1.88;;
69991;SDS011;57332;51.320;-0.580;2023-11-21T03:08:46;6.22;;;2.28;;
69991;SDS011;57332;51.320;-0.580;2023-11-21T03:11:13;3.72;;;2.25;;
69991;SDS011;57332;51.320;-0.580;2023-11-21T03:13:41;3.60;;;2.00;;
69991;SDS011;57332;51.320;-0.580;2023-11-21T03:16:08;5.30;;;2.28;;
69991;SDS011;57332;51.320;-0.580;2023-11-21T03:18:36;5.60;;;2.40;;
69991;SDS011;57332;51.320;-0.580;2023-11-21T03:21:04;5.63;;;2.35;;
69991;SDS011;57332;51.320;-0.580;2023-11-21T03:23:31;4.55;;;2.28;;
69991;SDS011;57332;51.320;-0.580;2023-11-21T03:25:58;4.75;;;2.38;;
69991;SDS011;57332;51.320;-0.580;2023-11-21T03:28:26;4.20;;;2.25;;
69991;SDS011;57332;51.320;-0.580;2023-11-21T03:30:57;3.75;;;2.00;;
69991;SDS011;57332;51.320;-0.580;2023-11-21T03:33:24;5.40;;;2.60;;
69991;SDS011;57332;51.320;-0.580;2023-11-21T03:35:51;3.35;;;1.85;;
69991;SDS011;57332;51.320;-0.580;2023-11-21T03:38:19;4.65;;;1.90;;
69991;SDS011;57332;51.320;-0.580;2023-11-21T03:40:47;5.85;;;2.33;;
69991;SDS011;57332;51.320;-0.580;2023-11-21T03:43:14;6.07;;;2.60;;
69991;SDS011;57332;51.320;-0.580;2023-11-21T03:45:41;4.10;;;1.92;;
69991;SDS011;57332;51.320;-0.580;2023-11-21T03:48:08;4.38;;;2.15;;
69991;SDS011;57332;51.320;-0.580;2023-11-21T03:50:35;3.50;;;1.90;;
69991;SDS011;57332;51.320;-0.580;2023-11-21T03:53:02;5.55;;;2.03;;
69991;SDS011;57332;51.320;-0.580;2023-11-21T03:55:30;5.80;;;2.30;;
69991;SDS011;57332;51.320;-0.580;2023-11-21T03:57:58;6.68;;;2.05;;
69991;SDS011;57332;51.320;-0.580;2023-11-21T04:00:25;3.83;;;1.70;;
69991;SDS011;57332;51.320;-0.580;2023-11-21T04:02:53;3.45;;;1.92;;
69991;SDS011;57332;51.320;-0.580;2023-11-21T04:05:20;4.57;;;2.00;;
69991;SDS011;57332;51.320;-0.580;2023-11-21T04:07:49;6.18;;;1.80;;
69991;SDS011;57332;51.320;-0.580;2023-11-21T04:10:16;3.05;;;1.52;;
69991;SDS011;57332;51.320;-0.580;2023-11-21T04:12:43;3.53;;;1.45;;
69991;SDS011;57332;51.320;-0.580;2023-11-21T04:15:11;4.07;;;1.60;;
69991;SDS011;57332;51.320;-0.580;2023-11-21T04:17:40;2.15;;;1.55;;
69991;SDS011;57332;51.320;-0.580;2023-11-21T04:20:08;1.52;;;0.93;;
69991;SDS011;57332;51.320;-0.580;2023-11-21T04:22:36;1.90;;;1.10;;
69991;SDS011;57332;51.320;-0.580;2023-11-21T04:25:03;3.05;;;1.08;;
69991;SDS011;57332;51.320;-0.580;2023-11-21T04:27:30;2.17;;;0.80;;
69991;SDS011;57332;51.320;-0.580;2023-11-21T04:29:57;2.13;;;0.90;;
69991;SDS011;57332;51.320;-0.580;2023-11-21T04:32:24;1.30;;;0.70;;
69991;SDS011;57332;51.320;-0.580;2023-11-21T04:34:51;2.08;;;0.60;;
69991;SDS011;57332;51.320;-0.580;2023-11-21T04:37:18;1.23;;;0.60;;
69991;SDS011;57332;51.320;-0.580;2023-11-21T04:39:45;1.02;;;0.70;;
69991;SDS011;57332;51.320;-0.580;2023-11-21T04:42:11;1.15;;;0.50;;
69991;SDS011;57332;51.320;-0.580;2023-11-21T04:44:39;0.65;;;0.45;;
69991;SDS011;57332;51.320;-0.580;2023-11-21T04:47:07;0.82;;;0.50;;
69991;SDS011;57332;51.320;-0.580;2023-11-21T04:49:34;0.47;;;0.40;;
69991;SDS011;57332;51.320;-0.580;2023-11-21T04:52:01;1.00;;;0.50;;
69991;SDS011;57332;51.320;-0.580;2023-11-21T04:54:30;0.80;;;0.55;;
69991;SDS011;57332;51.320;-0.580;2023-11-21T04:56:57;0.88;;;0.70;;
69991;SDS011;57332;51.320;-0.580;2023-11-21T04:59:25;1.70;;;0.60;;
69991;SDS011;57332;51.320;-0.580;2023-11-21T05:01:53;1.38;;;0.90;;
69991;SDS011;57332;51.320;-0.580;2023-11-21T05:04:20;0.80;;;0.60;;
69991;SDS011;57332;51.320;-0.580;2023-11-21T05:06:51;0.80;;;0.60;;
69991;SDS011;57332;51.320;-0.580;2023-11-21T05:09:17;0.82;;;0.70;;
69991;SDS011;57332;51.320;-0.580;2023-11-21T05:11:44;1.00;;;0.68;;
69991;SDS011;57332;51.320;-0.580;2023-11-21T05:14:11;0.90;;;0.60;;
69991;SDS011;57332;51.320;-0.580;2023-11-21T05:16:38;1.65;;;0.77;;
69991;SDS011;57332;51.320;-0.580;2023-11-21T05:19:05;1.15;;;0.70;;
69991;SDS011;57332;51.320;-0.580;2023-11-21T05:21:33;1.52;;;0.77;;
69991;SDS011;57332;51.320;-0.580;2023-11-21T05:24:00;1.25;;;0.60;;
69991;SDS011;57332;51.320;-0.580;2023-11-21T05:26:26;1.48;;;0.70;;
69991;SDS011;57332;51.320;-0.580;2023-11-21T05:28:54;1.02;;;0.52;;
69991;SDS011;57332;51.320;-0.580;2023-11-21T05:31:21;1.42;;;0.80;;
69991;SDS011;57332;51.320;-0.580;2023-11-21T05:33:48;0.85;;;0.60;;
69991;SDS011;57332;51.320;-0.580;2023-11-21T05:36:15;1.13;;;0.50;;
69991;SDS011;57332;51.320;-0.580;2023-11-21T05:38:42;1.60;;;0.80;;
69991;SDS011;57332;51.320;-0.580;2023-11-21T05:41:08;0.98;;;0.60;;
69991;SDS011;57332;51.320;-0.580;2023-11-21T05:43:37;3.15;;;0.82;;
69991;SDS011;57332;51.320;-0.580;2023-11-21T05:46:04;1.05;;;0.65;;
69991;SDS011;57332;51.320;-0.580;2023-11-21T05:48:33;1.35;;;0.63;;
69991;SDS011;57332;51.320;-0.580;2023-11-21T05:51:00;1.25;;;0.70;;
69991;SDS011;57332;51.320;-0.580;2023-11-21T05:53:28;2.38;;;0.95;;
69991;SDS011;57332;51.320;-0.580;2023-11-21T05:55:55;1.65;;;0.88;;
69991;SDS011;57332;51.320;-0.580;2023-11-21T05:58:22;3.42;;;0.95;;
69991;SDS011;57332;51.320;-0.580;2023-11-21T06:00:49;1.48;;;0.68;;
69991;SDS011;57332;51.320;-0.580;2023-11-21T06:03:16;1.90;;;0.90;;
69991;SDS011;57332;51.320;-0.580;2023-11-21T06:05:44;2.40;;;0.98;;
69991;SDS011;57332;51.320;-0.580;2023-11-21T06:08:11;1.20;;;0.63;;
69991;SDS011;57332;51.320;-0.580;2023-11-21T06:10:37;2.55;;;0.80;;
69991;SDS011;57332;51.320;-0.580;2023-11-21T06:13:06;1.30;;;0.80;;
69991;SDS011;57332;51.320;-0.580;2023-11-21T06:15:33;2.38;;;0.82;;
69991;SDS011;57332;51.320;-0.580;2023-11-21T06:18:01;2.72;;;1.00;;
69991;SDS011;57332;51.320;-0.580;2023-11-21T06:20:28;1.20;;;0.73;;
69991;SDS011;57332;51.320;-0.580;2023-11-21T06:22:54;2.28;;;1.00;;
69991;SDS011;57332;51.320;-0.580;2023-11-21T06:25:22;1.55;;;1.10;;
69991;SDS011;57332;51.320;-0.580;2023-11-21T06:27:49;1.25;;;0.95;;
69991;SDS011;57332;51.320;-0.580;2023-11-21T06:30:17;2.58;;;0.90;;
69991;SDS011;57332;51.320;-0.580;2023-11-21T06:32:46;1.20;;;0.90;;
69991;SDS011;57332;51.320;-0.580;2023-11-21T06:35:14;2.05;;;0.63;;
69991;SDS011;57332;51.320;-0.580;2023-11-21T06:37:43;1.85;;;0.90;;
69991;SDS011;57332;51.320;-0.580;2023-11-21T06:40:18;0.90;;;0.60;;
69991;SDS011;57332;51.320;-0.580;2023-11-21T06:42:46;2.00;;;0.63;;
69991;SDS011;57332;51.320;-0.580;2023-11-21T06:45:14;2.38;;;0.80;;
69991;SDS011;57332;51.320;-0.580;2023-11-21T06:47:41;1.13;;;0.55;;
69991;SDS011;57332;51.320;-0.580;2023-11-21T06:50:09;1.40;;;0.80;;
69991;SDS011;57332;51.320;-0.580;2023-11-21T06:52:36;1.70;;;0.80;;
69991;SDS011;57332;51.320;-0.580;2023-11-21T06:55:02;1.98;;;0.70;;
69991;SDS011;57332;51.320;-0.580;2023-11-21T06:57:30;1.58;;;1.05;;
69991;SDS011;57332;51.320;-0.580;2023-11-21T06:59:57;4.05;;;0.80;;
69991;SDS011;57332;51.320;-0.580;2023-11-21T07:02:24;0.57;;;0.57;;
69991;SDS011;57332;51.320;-0.580;2023-11-21T07:04:51;1.45;;;0.68;;
69991;SDS011;57332;51.320;-0.580;2023-11-21T07:07:18;2.17;;;0.88;;
69991;SDS011;57332;51.320;-0.580;2023-11-21T07:09:45;2.25;;;0.82;;
69991;SDS011;57332;51.320;-0.580;2023-11-21T07:12:12;1.42;;;0.57;;
69991;SDS011;57332;51.320;-0.580;2023-11-21T07:14:40;1.02;;;0.73;;
69991;SDS011;57332;51.320;-0.580;2023-11-21T07:17:10;4.68;;;0.73;;
69991;SDS011;57332;51.320;-0.580;2023-11-21T07:19:38;1.05;;;0.63;;
69991;SDS011;57332;51.320;-0.580;2023-11-21T07:22:05;1.77;;;0.60;;
69991;SDS011;57332;51.320;-0.580;2023-11-21T07:24:32;1.50;;;0.55;;
69991;SDS011;57332;51.320;-0.580;2023-11-21T07:26:59;1.00;;;0.70;;
69991;SDS011;57332;51.320;-0.580;2023-11-21T07:29:27;0.85;;;0.60;;
69991;SDS011;57332;51.320;-0.580;2023-11-21T07:31:56;0.63;;;0.50;;
69991;SDS011;57332;51.320;-0.580;2023-11-21T07:34:23;0.60;;;0.55;;
69991;SDS011;57332;51.320;-0.580;2023-11-21T07:36:50;1.38;;;0.80;;
69991;SDS011;57332;51.320;-0.580;2023-11-21T07:39:17;0.50;;;0.40;;
69991;SDS011;57332;51.320;-0.580;2023-11-21T07:41:44;0.70;;;0.65;;
69991;SDS011;57332;51.320;-0.580;2023-11-21T07:44:18;0.63;;;0.45;;
69991;SDS011;57332;51.320;-0.580;2023-11-21T07:46:47;0.70;;;0.50;;
69991;SDS011;57332;51.320;-0.580;2023-11-21T07:49:16;1.17;;;0.60;;
69991;SDS011;57332;51.320;-0.580;2023-11-21T07:51:47;2.35;;;0.70;;
69991;SDS011;57332;51.320;-0.580;2023-11-21T07:54:14;1.23;;;0.50;;
69991;SDS011;57332;51.320;-0.580;2023-11-21T07:56:42;3.83;;;0.80;;
69991;SDS011;57332;51.320;-0.580;2023-11-21T07:59:09;1.38;;;0.68;;
69991;SDS011;57332;51.320;-0.580;2023-11-21T08:01:37;1.80;;;0.60;;
69991;SDS011;57332;51.320;-0.580;2023-11-21T08:04:04;1.60;;;0.50;;
69991;SDS011;57332;51.320;-0.580;2023-11-21T08:06:31;1.42;;;0.60;;
69991;SDS011;57332;51.320;-0.580;2023-11-21T08:08:59;2.45;;;0.70;;
69991;SDS011;57332;51.320;-0.580;2023-11-21T08:11:26;1.60;;;0.68;;
69991;SDS011;57332;51.320;-0.580;2023-11-21T08:13:56;2.10;;;1.02;;
69991;SDS011;57332;51.320;-0.580;2023-11-21T08:16:23;3.15;;;0.82;;
69991;SDS011;57332;51.320;-0.580;2023-11-21T08:18:51;0.65;;;0.40;;
69991;SDS011;57332;51.320;-0.580;2023-11-21T08:21:18;1.08;;;0.60;;
69991;SDS011;57332;51.320;-0.580;2023-11-21T08:23:46;1.67;;;0.90;;
69991;SDS011;57332;51.320;-0.580;2023-11-21T08:26:15;1.75;;;1.00;;
69991;SDS011;57332;51.320;-0.580;2023-11-21T08:28:42;1.80;;;0.82;;
69991;SDS011;57332;51.320;-0.580;2023-11-21T08:31:09;1.20;;;0.80;;
69991;SDS011;57332;51.320;-0.580;2023-11-21T08:33:39;2.65;;;0.82;;
69991;SDS011;57332;51.320;-0.580;2023-11-21T08:36:09;2.67;;;0.80;;
69991;SDS011;57332;51.320;-0.580;2023-11-21T08:38:37;0.75;;;0.57;;
69991;SDS011;57332;51.320;-0.580;2023-11-21T08:41:05;1.20;;;0.80;;
69991;SDS011;57332;51.320;-0.580;2023-11-21T08:43:37;2.08;;;0.90;;
69991;SDS011;57332;51.320;-0.580;2023-11-21T08:46:07;1.15;;;0.55;;
69991;SDS011;57332;51.320;-0.580;2023-11-21T08:48:36;1.77;;;1.00;;
69991;SDS011;57332;51.320;-0.580;2023-11-21T08:51:03;0.93;;;0.52;;
69991;SDS011;57332;51.320;-0.580;2023-11-21T08:53:31;1.05;;;0.73;;
69991;SDS011;57332;51.320;-0.580;2023-11-21T08:55:58;2.08;;;0.80;;
69991;SDS011;57332;51.320;-0.580;2023-11-21T08:58:25;1.60;;;0.70;;
69991;SDS011;57332;51.320;-0.580;2023-11-21T09:00:52;1.58;;;0.88;;
69991;SDS011;57332;51.320;-0.580;2023-11-21T09:03:19;1.50;;;0.80;;
69991;SDS011;57332;51.320;-0.580;2023-11-21T09:05:46;1.23;;;0.88;;
69991;SDS011;57332;51.320;-0.580;2023-11-21T09:08:13;0.88;;;0.63;;
69991;SDS011;57332;51.320;-0.580;2023-11-21T09:10:40;1.00;;;0.60;;
69991;SDS011;57332;51.320;-0.580;2023-11-21T09:13:09;1.65;;;0.52;;
69991;SDS011;57332;51.320;-0.580;2023-11-21T09:15:36;1.05;;;0.63;;
69991;SDS011;57332;51.320;-0.580;2023-11-21T09:18:03;1.05;;;0.80;;
69991;SDS011;57332;51.320;-0.580;2023-11-21T09:20:31;2.05;;;0.63;;
69991;SDS011;57332;51.320;-0.580;2023-11-21T09:22:58;1.15;;;0.70;;
69991;SDS011;57332;51.320;-0.580;2023-11-21T09:25:25;1.40;;;0.70;;
69991;SDS011;57332;51.320;-0.580;2023-11-21T09:27:52;1.05;;;0.70;;
69991;SDS011;57332;51.320;-0.580;2023-11-21T09:30:19;1.40;;;0.70;;
69991;SDS011;57332;51.320;-0.580;2023-11-21T09:32:46;2.22;;;0.65;;
69991;SDS011;57332;51.320;-0.580;2023-11-21T09:35:14;1.52;;;0.70;;
69991;SDS011;57332;51.320;-0.580;2023-11-21T09:37:42;1.98;;;0.55;;
69991;SDS011;57332;51.320;-0.580;2023-11-21T09:40:11;1.00;;;0.85;;
69991;SDS011;57332;51.320;-0.580;2023-11-21T09:42:54;1.30;;;0.65;;
69991;SDS011;57332;51.320;-0.580;2023-11-21T09:45:24;2.10;;;0.73;;
69991;SDS011;57332;51.320;-0.580;2023-11-21T09:47:52;1.35;;;0.68;;
69991;SDS011;57332;51.320;-0.580;2023-11-21T09:50:20;0.98;;;0.50;;
69991;SDS011;57332;51.320;-0.580;2023-11-21T09:55:27;0.65;;;0.60;;
69991;SDS011;57332;51.320;-0.580;2023-11-21T09:57:58;0.90;;;0.50;;
69991;SDS011;57332;51.320;-0.580;2023-11-21T10:00:25;1.45;;;0.45;;
69991;SDS011;57332;51.320;-0.580;2023-11-21T10:02:53;2.60;;;0.60;;
69991;SDS011;57332;51.320;-0.580;2023-11-21T10:05:21;1.38;;;0.55;;
69991;SDS011;57332;51.320;-0.580;2023-11-21T10:07:52;3.35;;;0.82;;
69991;SDS011;57332;51.320;-0.580;2023-11-21T10:10:20;1.10;;;0.55;;
69991;SDS011;57332;51.320;-0.580;2023-11-21T10:12:49;0.60;;;0.60;;
69991;SDS011;57332;51.320;-0.580;2023-11-21T10:15:16;1.15;;;0.55;;
69991;SDS011;57332;51.320;-0.580;2023-11-21T10:17:43;0.80;;;0.50;;
69991;SDS011;57332;51.320;-0.580;2023-11-21T10:20:11;1.92;;;0.55;;
69991;SDS011;57332;51.320;-0.580;2023-11-21T10:22:40;2.00;;;0.73;;
69991;SDS011;57332;51.320;-0.580;2023-11-21T10:25:09;1.75;;;0.70;;
69991;SDS011;57332;51.320;-0.580;2023-11-21T10:27:38;0.57;;;0.45;;
69991;SDS011;57332;51.320;-0.580;2023-11-21T10:30:09;0.98;;;0.60;;
69991;SDS011;57332;51.320;-0.580;2023-11-21T10:32:39;1.23;;;0.50;;
69991;SDS011;57332;51.320;-0.580;2023-11-21T10:35:07;0.80;;;0.52;;
69991;SDS011;57332;51.320;-0.580;2023-11-21T10:37:37;0.98;;;0.60;;
69991;SDS011;57332;51.320;-0.580;2023-11-21T10:40:06;1.13;;;0.70;;
69991;SDS011;57332;51.320;-0.580;2023-11-21T10:42:34;1.67;;;0.75;;
69991;SDS011;57332;51.320;-0.580;2023-11-21T10:45:01;1.17;;;0.60;;
69991;SDS011;57332;51.320;-0.580;2023-11-21T10:47:30;1.58;;;0.80;;
69991;SDS011;57332;51.320;-0.580;2023-11-21T10:49:58;1.75;;;0.70;;
69991;SDS011;57332;51.320;-0.580;2023-11-21T10:52:27;1.27;;;0.70;;
69991;SDS011;57332;51.320;-0.580;2023-11-21T10:54:54;1.42;;;0.68;;
69991;SDS011;57332;51.320;-0.580;2023-11-21T10:57:21;1.40;;;0.80;;
69991;SDS011;57332;51.320;-0.580;2023-11-21T10:59:50;1.15;;;0.60;;
69991;SDS011;57332;51.320;-0.580;2023-11-21T11:02:21;1.02;;;0.75;;
69991;SDS011;57332;51.320;-0.580;2023-11-21T11:04:49;1.13;;;0.68;;
69991;SDS011;57332;51.320;-0.580;2023-11-21T11:07:16;1.25;;;0.68;;
69991;SDS011;57332;51.320;-0.580;2023-11-21T11:09:44;2.33;;;0.70;;
69991;SDS011;57332;51.320;-0.580;2023-11-21T11:12:12;1.40;;;0.50;;
69991;SDS011;57332;51.320;-0.580;2023-11-21T11:14:40;1.63;;;0.60;;
69991;SDS011;57332;51.320;-0.580;2023-11-21T11:17:07;1.25;;;0.52;;
69991;SDS011;57332;51.320;-0.580;2023-11-21T11:19:35;1.17;;;0.75;;
69991;SDS011;57332;51.320;-0.580;2023-11-21T11:22:23;1.90;;;0.70;;
69991;SDS011;57332;51.320;-0.580;2023-11-21T11:30:10;1.35;;;0.65;;
69991;SDS011;57332;51.320;-0.580;2023-11-21T11:32:43;0.85;;;0.40;;
69991;SDS011;57332;51.320;-0.580;2023-11-21T11:35:17;1.00;;;0.60;;
69991;SDS011;57332;51.320;-0.580;2023-11-21T11:37:45;3.00;;;0.60;;
69991;SDS011;57332;51.320;-0.580;2023-11-21T11:40:13;0.98;;;0.50;;
69991;SDS011;57332;51.320;-0.580;2023-11-21T11:42:40;1.08;;;0.63;;
69991;SDS011;57332;51.320;-0.580;2023-11-21T11:45:21;0.95;;;0.70;;
69991;SDS011;57332;51.320;-0.580;2023-11-21T11:47:48;0.70;;;0.45;;
69991;SDS011;57332;51.320;-0.580;2023-11-21T11:50:15;1.13;;;0.45;;
69991;SDS011;57332;51.320;-0.580;2023-11-21T11:52:45;1.25;;;0.70;;
69991;SDS011;57332;51.320;-0.580;2023-11-21T11:55:13;0.50;;;0.40;;
69991;SDS011;57332;51.320;-0.580;2023-11-21T11:57:42;2.03;;;0.60;;
69991;SDS011;57332;51.320;-0.580;2023-11-21T12:00:13;0.57;;;0.50;;
69991;SDS011;57332;51.320;-0.580;2023-11-21T12:02:46;3.17;;;0.70;;
69991;SDS011;57332;51.320;-0.580;2023-11-21T12:05:14;4.15;;;0.73;;
69991;SDS011;57332;51.320;-0.580;2023-11-21T12:07:43;1.38;;;0.60;;
69991;SDS011;57332;51.320;-0.580;2023-11-21T12:10:17;1.40;;;0.50;;
69991;SDS011;57332;51.320;-0.580;2023-11-21T12:12:45;2.38;;;0.70;;
69991;SDS011;57332;51.320;-0.580;2023-11-21T12:15:13;0.95;;;0.60;;
69991;SDS011;57332;51.320;-0.580;2023-11-21T12:17:43;0.88;;;0.50;;
69991;SDS011;57332;51.320;-0.580;2023-11-21T12:20:11;1.02;;;0.60;;
69991;SDS011;57332;51.320;-0.580;2023-11-21T12:22:42;1.60;;;0.70;;
69991;SDS011;57332;51.320;-0.580;2023-11-21T12:25:10;0.85;;;0.57;;
69991;SDS011;57332;51.320;-0.580;2023-11-21T12:27:43;2.65;;;0.73;;
69991;SDS011;57332;51.320;-0.580;2023-11-21T12:30:11;1.42;;;0.73;;
69991;SDS011;57332;51.320;-0.580;2023-11-21T12:32:40;0.70;;;0.60;;
69991;SDS011;57332;51.320;-0.580;2023-11-21T12:35:09;0.63;;;0.50;;
69991;SDS011;57332;51.320;-0.580;2023-11-21T12:37:37;1.65;;;0.80;;
69991;SDS011;57332;51.320;-0.580;2023-11-21T12:40:08;1.58;;;0.90;;
69991;SDS011;57332;51.320;-0.580;2023-11-21T12:42:41;1.15;;;0.70;;
69991;SDS011;57332;51.320;-0.580;2023-11-21T12:47:35;1.95;;;0.82;;
69991;SDS011;57332;51.320;-0.580;2023-11-21T12:50:02;1.60;;;0.90;;
69991;SDS011;57332;51.320;-0.580;2023-11-21T12:52:29;1.85;;;0.88;;
69991;SDS011;57332;51.320;-0.580;2023-11-21T12:54:56;2.70;;;0.73;;
69991;SDS011;57332;51.320;-0.580;2023-11-21T12:57:26;2.15;;;1.05;;
69991;SDS011;57332;51.320;-0.580;2023-11-21T12:59:57;1.02;;;0.73;;
69991;SDS011;57332;51.320;-0.580;2023-11-21T13:02:26;2.13;;;0.90;;
69991;SDS011;57332;51.320;-0.580;2023-11-21T13:04:53;0.98;;;0.63;;
69991;SDS011;57332;51.320;-0.580;2023-11-21T13:07:20;1.17;;;0.93;;
69991;SDS011;57332;51.320;-0.580;2023-11-21T13:09:52;1.17;;;0.80;;
69991;SDS011;57332;51.320;-0.580;2023-11-21T13:12:23;1.17;;;0.70;;
69991;SDS011;57332;51.320;-0.580;2023-11-21T13:14:51;1.20;;;0.70;;
69991;SDS011;57332;51.320;-0.580;2023-11-21T13:17:18;1.58;;;0.98;;
69991;SDS011;57332;51.320;-0.580;2023-11-21T13:19:46;0.88;;;0.50;;
69991;SDS011;57332;51.320;-0.580;2023-11-21T13:22:13;0.75;;;0.40;;
69991;SDS011;57332;51.320;-0.580;2023-11-21T13:24:40;0.80;;;0.60;;
69991;SDS011;57332;51.320;-0.580;2023-11-21T13:27:07;1.15;;;0.50;;
69991;SDS011;57332;51.320;-0.580;2023-11-21T13:29:34;0.52;;;0.40;;
69991;SDS011;57332;51.320;-0.580;2023-11-21T13:32:02;1.38;;;0.47;;
69991;SDS011;57332;51.320;-0.580;2023-11-21T13:34:31;1.05;;;0.50;;
69991;SDS011;57332;51.320;-0.580;2023-11-21T13:37:00;1.38;;;0.50;;
69991;SDS011;57332;51.320;-0.580;2023-11-21T13:39:29;1.63;;;0.40;;
69991;SDS011;57332;51.320;-0.580;2023-11-21T13:41:59;0.80;;;0.40;;
69991;SDS011;57332;51.320;-0.580;2023-11-21T13:44:26;0.63;;;0.43;;
69991;SDS011;57332;51.320;-0.580;2023-11-21T13:46:54;2.88;;;0.50;;
69991;SDS011;57332;51.320;-0.580;2023-11-21T13:49:23;2.85;;;0.43;;
69991;SDS011;57332;51.320;-0.580;2023-11-21T13:51:52;0.75;;;0.50;;
69991;SDS011;57332;51.320;-0.580;2023-11-21T13:54:21;0.90;;;0.40;;
69991;SDS011;57332;51.320;-0.580;2023-11-21T13:56:50;0.95;;;0.30;;
69991;SDS011;57332;51.320;-0.580;2023-11-21T13:59:17;0.90;;;0.45;;
69991;SDS011;57332;51.320;-0.580;2023-11-21T14:01:50;1.63;;;0.60;;
69991;SDS011;57332;51.320;-0.580;2023-11-21T14:04:20;2.42;;;0.40;;
69991;SDS011;57332;51.320;-0.580;2023-11-21T14:07:01;1.13;;;0.50;;
69991;SDS011;57332;51.320;-0.580;2023-11-21T14:09:45;0.70;;;0.45;;
69991;SDS011;57332;51.320;-0.580;2023-11-21T14:12:12;1.13;;;0.70;;
69991;SDS011;57332;51.320;-0.580;2023-11-21T14:14:40;1.63;;;0.80;;
69991;SDS011;57332;51.320;-0.580;2023-11-21T14:17:07;0.57;;;0.30;;
69991;SDS011;57332;51.320;-0.580;2023-11-21T14:19:34;0.43;;;0.35;;
69991;SDS011;57332;51.320;-0.580;2023-11-21T14:22:03;1.05;;;0.40;;
69991;SDS011;57332;51.320;-0.580;2023-11-21T14:24:31;0.60;;;0.45;;
69991;SDS011;57332;51.320;-0.580;2023-11-21T14:26:59;1.67;;;0.57;;
69991;SDS011;57332;51.320;-0.580;2023-11-21T14:29:26;1.08;;;0.57;;
69991;SDS011;57332;51.320;-0.580;2023-11-21T14:31:54;2.65;;;0.47;;
69991;SDS011;57332;51.320;-0.580;2023-11-21T14:34:24;1.27;;;0.50;;
69991;SDS011;57332;51.320;-0.580;2023-11-21T14:36:51;3.60;;;0.65;;
69991;SDS011;57332;51.320;-0.580;2023-11-21T14:39:17;1.27;;;0.50;;
69991;SDS011;57332;51.320;-0.580;2023-11-21T14:41:50;2.20;;;0.77;;
69991;SDS011;57332;51.320;-0.580;2023-11-21T14:44:19;1.90;;;0.80;;
69991;SDS011;57332;51.320;-0.580;2023-11-21T14:46:47;2.78;;;0.82;;
69991;SDS011;57332;51.320;-0.580;2023-11-21T14:49:17;4.22;;;0.80;;